createdAt,value
2019-02-16T00:04:13.003Z,101579.36
2019-02-16T00:06:41.432Z,101573.19
2019-02-16T00:09:09.956Z,101577.04
2019-02-16T00:11:38.412Z,101574.64
2019-02-16T00:14:26.163Z,101565.57
2019-02-16T00:16:54.619Z,101564.89
2019-02-16T00:19:23.048Z,101559.89
2019-02-16T00:21:51.502Z,101563.34
2019-02-16T00:24:39.150Z,101563.80
2019-02-16T00:27:07.591Z,101562.63
2019-02-16T00:29:36.016Z,101566.03
2019-02-16T00:34:38.863Z,101564.52
2019-02-16T00:39:41.316Z,101575.45
2019-02-16T00:42:09.744Z,101572.69
2019-02-16T00:44:38.169Z,101569.46
2019-02-16T00:47:06.637Z,101563.59
2019-02-16T00:49:35.067Z,101557.02
2019-02-16T00:52:03.776Z,101563.28
2019-02-16T00:54:32.233Z,101560.70
2019-02-16T00:57:00.659Z,101560.20
2019-02-16T00:59:48.301Z,101559.72
2019-02-16T01:02:16.729Z,101563.16
2019-02-16T01:04:45.171Z,101566.30
2019-02-16T01:10:06.403Z,101571.04
2019-02-16T01:12:54.049Z,101577.08
2019-02-16T01:15:22.474Z,101571.52
2019-02-16T01:17:50.908Z,101568.63
2019-02-16T01:20:19.359Z,101572.55
2019-02-16T01:22:48.061Z,101574.28
2019-02-16T01:25:17.945Z,101570.25
2019-02-16T01:27:46.721Z,101570.59
2019-02-16T01:30:34.411Z,101571.67
2019-02-16T01:35:36.868Z,101562.19
2019-02-16T01:38:24.578Z,101563.84
2019-02-16T01:41:12.325Z,101558.45
2019-02-16T01:43:40.790Z,101556.30
2019-02-16T01:46:09.221Z,101557.11
2019-02-16T01:48:37.656Z,101553.13
2019-02-16T01:51:06.112Z,101551.24
2019-02-16T01:53:34.544Z,101551.97
2019-02-16T01:56:03.062Z,101545.86
2019-02-16T01:58:31.880Z,101551.18
2019-02-16T02:01:00.308Z,101548.11
2019-02-16T02:03:28.744Z,101554.87
2019-02-16T02:06:16.904Z,101546.10
2019-02-16T02:08:45.669Z,101541.25
2019-02-16T02:11:14.105Z,101542.55
2019-02-16T02:13:42.652Z,101536.47
2019-02-16T02:16:11.420Z,101537.00
2019-02-16T02:18:40.210Z,101536.59
2019-02-16T02:21:09.022Z,101538.48
2019-02-16T02:23:37.454Z,101531.73
2019-02-16T02:26:25.152Z,101525.27
2019-02-16T02:28:53.576Z,101528.41
2019-02-16T02:31:22.022Z,101525.58
2019-02-16T02:33:50.469Z,101527.34
2019-02-16T02:36:18.890Z,101532.09
2019-02-16T02:38:47.315Z,101529.02
2019-02-16T02:41:15.775Z,101525.98
2019-02-16T02:44:24.137Z,101532.57
2019-02-16T02:49:26.261Z,101523.14
2019-02-16T02:51:54.724Z,101522.16
2019-02-16T02:54:23.153Z,101519.47
2019-02-16T02:56:51.584Z,101520.89
2019-02-16T02:59:20.333Z,101526.70
2019-02-16T03:01:48.756Z,101531.25
2019-02-16T03:04:17.278Z,101529.12
2019-02-16T03:09:19.620Z,101540.42
2019-02-16T03:11:48.049Z,101543.40
2019-02-16T03:16:50.759Z,101545.02
2019-02-16T03:19:19.209Z,101548.64
2019-02-16T03:21:47.645Z,101548.36
2019-02-16T03:24:16.074Z,101551.78
2019-02-16T03:33:25.557Z,101553.91
2019-02-16T03:36:33.951Z,101546.47
2019-02-16T03:39:42.457Z,101543.99
2019-02-16T03:42:11.202Z,101543.64
2019-02-16T03:44:58.972Z,101530.64
2019-02-16T03:47:27.414Z,101529.75
2019-02-16T03:49:55.837Z,101527.41
2019-02-16T03:52:24.312Z,101520.95
2019-02-16T03:54:53.081Z,101525.41
2019-02-16T04:00:49.258Z,101527.95
2019-02-16T04:03:17.686Z,101534.98
2019-02-16T04:06:05.296Z,101537.81
2019-02-16T04:08:52.971Z,101539.47
2019-02-16T04:11:40.760Z,101532.55
2019-02-16T04:14:09.286Z,101538.59
2019-02-16T04:16:37.712Z,101532.01
2019-02-16T04:19:25.489Z,101542.25
2019-02-16T04:21:54.275Z,101547.78
2019-02-16T04:24:22.768Z,101549.24
2019-02-16T04:26:51.241Z,101545.78
2019-02-16T04:29:19.680Z,101556.25
2019-02-16T04:31:48.112Z,101548.78
2019-02-16T04:34:17.001Z,101547.47
2019-02-16T04:36:45.436Z,101544.94
2019-02-16T04:39:13.871Z,101537.78
2019-02-16T04:41:42.337Z,101531.80
2019-02-16T04:44:10.845Z,101540.09
2019-02-16T04:46:39.280Z,101540.90
2019-02-16T04:51:41.443Z,101527.69
2019-02-16T04:54:10.164Z,101521.62
2019-02-16T04:56:38.948Z,101519.05
2019-02-16T04:59:07.373Z,101520.30
2019-02-16T05:01:35.803Z,101525.91
2019-02-16T05:04:04.258Z,101516.86
2019-02-16T05:06:32.686Z,101524.12
2019-02-16T05:09:01.476Z,101529.13
2019-02-16T05:14:03.900Z,101540.77
2019-02-16T05:16:32.418Z,101532.97
2019-02-16T05:19:00.885Z,101531.99
2019-02-16T05:21:29.314Z,101534.44
2019-02-16T05:23:57.746Z,101523.48
2019-02-16T05:26:26.666Z,101520.20
2019-02-16T05:28:55.092Z,101525.21
2019-02-16T05:31:23.524Z,101520.22
2019-02-16T05:33:51.987Z,101525.13
2019-02-16T05:36:20.414Z,101525.84
2019-02-16T05:38:48.928Z,101523.42
2019-02-16T05:41:17.397Z,101522.27
2019-02-16T05:43:45.825Z,101522.28
2019-02-16T05:46:33.616Z,101530.18
2019-02-16T05:49:02.044Z,101534.10
2019-02-16T05:51:30.507Z,101533.88
2019-02-16T05:56:33.230Z,101520.70
2019-02-16T05:59:01.698Z,101525.43
2019-02-16T06:01:30.219Z,101529.55
2019-02-16T06:03:58.910Z,101531.23
2019-02-16T06:09:02.124Z,101531.73
2019-02-16T06:11:30.654Z,101534.80
2019-02-16T06:13:59.368Z,101537.38
2019-02-16T06:16:28.601Z,101531.49
2019-02-16T06:18:57.351Z,101535.33
2019-02-16T06:21:45.034Z,101542.80
2019-02-16T06:24:13.576Z,101541.66
2019-02-16T06:26:42.289Z,101548.20
2019-02-16T06:29:10.717Z,101544.97
2019-02-16T06:31:39.277Z,101540.14
2019-02-16T06:34:07.978Z,101541.19
2019-02-16T06:39:25.788Z,101544.20
2019-02-16T06:41:55.085Z,101542.55
2019-02-16T06:44:23.517Z,101533.59
2019-02-16T06:46:52.267Z,101547.54
2019-02-16T06:49:20.970Z,101555.72
2019-02-16T06:51:49.514Z,101556.34
2019-02-16T06:54:18.270Z,101558.48
2019-02-16T06:57:05.818Z,101566.19
2019-02-16T06:59:34.279Z,101570.09
2019-02-16T07:02:02.701Z,101568.19
2019-02-16T07:04:31.123Z,101570.48
2019-02-16T07:06:59.644Z,101581.41
2019-02-16T07:09:28.073Z,101581.45
2019-02-16T07:11:56.593Z,101578.20
2019-02-16T07:14:25.193Z,101580.06
2019-02-16T07:16:55.262Z,101585.86
2019-02-16T07:19:27.768Z,101579.02
2019-02-16T07:21:56.697Z,101582.03
2019-02-16T07:24:25.194Z,101584.69
2019-02-16T07:26:53.621Z,101586.13
2019-02-16T07:29:22.414Z,101590.39
2019-02-16T07:31:50.832Z,101586.70
2019-02-16T07:34:19.272Z,101586.34
2019-02-16T07:36:47.728Z,101586.00
2019-02-16T07:39:16.158Z,101587.01
2019-02-16T07:41:44.609Z,101589.61
2019-02-16T07:44:31.385Z,101594.70
2019-02-16T07:47:01.444Z,101598.82
2019-02-16T07:49:48.299Z,101593.73
2019-02-16T07:52:21.742Z,101600.19
2019-02-16T07:55:01.565Z,101593.88
2019-02-16T07:57:32.003Z,101589.73
2019-02-16T08:00:02.270Z,101594.20
2019-02-16T08:02:32.441Z,101591.97
2019-02-16T08:05:02.513Z,101591.62
2019-02-16T08:07:35.369Z,101589.77
2019-02-16T08:10:11.869Z,101597.50
2019-02-16T08:12:44.904Z,101587.37
2019-02-16T08:15:20.618Z,101587.95
2019-02-16T08:17:50.690Z,101594.73
2019-02-16T08:20:20.785Z,101595.56
2019-02-16T08:23:00.060Z,101591.95
2019-02-16T08:25:30.467Z,101581.16
2019-02-16T08:28:09.782Z,101588.00
2019-02-16T08:30:42.562Z,101588.80
2019-02-16T08:33:18.985Z,101588.48
2019-02-16T08:36:05.448Z,101585.59
2019-02-16T08:38:35.567Z,101581.45
2019-02-16T08:41:11.324Z,101579.16
2019-02-16T08:43:50.226Z,101574.69
2019-02-16T08:46:26.086Z,101576.73
2019-02-16T08:49:01.885Z,101575.09
2019-02-16T08:51:31.964Z,101560.36
2019-02-16T08:54:08.016Z,101561.92
2019-02-16T08:56:49.795Z,101562.78
2019-02-16T08:59:25.643Z,101564.97
2019-02-16T09:01:58.803Z,101559.10
2019-02-16T09:04:47.064Z,101563.32
2019-02-16T09:07:17.134Z,101568.67
2019-02-16T09:09:47.217Z,101559.35
2019-02-16T09:12:17.399Z,101560.92
2019-02-16T09:14:52.944Z,101563.86
2019-02-16T09:17:39.322Z,101559.70
2019-02-16T09:20:18.960Z,101550.55
2019-02-16T09:22:58.027Z,101546.58
2019-02-16T09:25:37.387Z,101541.98
2019-02-16T09:28:19.791Z,101543.19
2019-02-16T09:30:49.859Z,101549.28
2019-02-16T09:33:22.467Z,101548.20
2019-02-16T09:35:58.005Z,101554.69
2019-02-16T09:38:39.902Z,101560.14
2019-02-16T09:41:19.436Z,101556.47
2019-02-16T09:44:05.306Z,101551.39
2019-02-16T09:46:38.350Z,101553.62
2019-02-16T09:49:13.906Z,101548.77
2019-02-16T09:51:50.291Z,101545.11
2019-02-16T09:54:20.479Z,101547.48
2019-02-16T09:56:50.553Z,101547.38
2019-02-16T09:59:21.030Z,101541.11
2019-02-16T10:01:57.086Z,101531.92
2019-02-16T10:04:27.255Z,101537.28
2019-02-16T10:07:00.514Z,101536.50
2019-02-16T10:09:36.787Z,101539.16
2019-02-16T10:12:25.195Z,101542.39
2019-02-16T10:15:13.545Z,101543.02
2019-02-16T10:17:43.704Z,101541.94
2019-02-16T10:20:30.829Z,101532.79
2019-02-16T10:23:06.933Z,101529.44
2019-02-16T10:25:42.584Z,101529.58
2019-02-16T10:28:15.316Z,101527.94
2019-02-16T10:30:48.524Z,101530.14
2019-02-16T10:33:18.595Z,101532.29
2019-02-16T10:35:54.892Z,101534.18
2019-02-16T10:38:27.644Z,101533.22
2019-02-16T10:41:03.512Z,101533.39
2019-02-16T10:43:48.588Z,101522.48
2019-02-16T10:46:18.817Z,101519.41
2019-02-16T10:48:58.127Z,101521.89
2019-02-16T10:51:28.259Z,101520.28
2019-02-16T10:54:04.788Z,101519.67
2019-02-16T10:56:37.429Z,101516.03
2019-02-16T10:59:10.019Z,101520.98
2019-02-16T11:01:50.346Z,101517.25
2019-02-16T11:04:20.508Z,101508.51
2019-02-16T11:06:50.587Z,101503.93
2019-02-16T11:09:29.776Z,101500.14
2019-02-16T11:12:05.997Z,101502.83
2019-02-16T11:14:36.104Z,101492.80
2019-02-16T11:17:22.200Z,101495.02
2019-02-16T11:20:04.433Z,101497.73
2019-02-16T11:22:49.568Z,101495.61
2019-02-16T11:25:36.305Z,101492.53
2019-02-16T11:28:15.131Z,101487.32
2019-02-16T11:31:01.734Z,101476.88
2019-02-16T11:33:34.832Z,101476.03
2019-02-16T11:36:08.275Z,101468.98
2019-02-16T11:38:47.494Z,101455.72
2019-02-16T11:41:19.234Z,101466.36
2019-02-16T11:43:52.485Z,101468.56
2019-02-16T11:46:22.694Z,101465.04
2019-02-16T11:48:55.215Z,101460.63
2019-02-16T11:51:25.354Z,101458.00
2019-02-16T11:54:11.563Z,101458.45
2019-02-16T11:56:59.774Z,101450.94
2019-02-16T11:59:30.217Z,101446.53
2019-02-16T12:02:09.273Z,101443.42
2019-02-16T12:04:42.619Z,101441.64
2019-02-16T12:07:12.696Z,101436.77
2019-02-16T12:09:42.767Z,101432.34
2019-02-16T12:12:12.885Z,101427.02
2019-02-16T12:14:49.233Z,101425.22
2019-02-16T12:17:19.414Z,101421.11
2019-02-16T12:20:05.693Z,101418.88
2019-02-16T12:22:41.460Z,101402.95
2019-02-16T12:25:20.909Z,101404.80
2019-02-16T12:27:57.150Z,101402.86
2019-02-16T12:30:30.274Z,101404.13
2019-02-16T12:33:12.489Z,101398.77
2019-02-16T12:35:45.140Z,101398.78
2019-02-16T12:38:15.401Z,101393.91
2019-02-16T12:40:48.408Z,101391.59
2019-02-16T12:43:34.690Z,101388.89
2019-02-16T12:46:05.212Z,101376.88
2019-02-16T12:49:12.183Z,101384.28
2019-02-16T12:51:59.768Z,101382.05
2019-02-16T12:54:47.585Z,101378.09
2019-02-16T13:00:14.362Z,101367.34
2019-02-16T13:08:30.268Z,101359.10
2019-02-16T13:14:06.935Z,101357.71
2019-02-16T13:22:38.649Z,101358.59
2019-02-16T13:35:58.260Z,101345.61
2019-02-16T13:38:45.712Z,101337.39
2019-02-16T13:46:48.687Z,101345.81
2019-02-16T13:52:25.709Z,101336.19
2019-02-16T14:00:50.790Z,101336.05
2019-02-16T14:06:27.159Z,101326.89
2019-02-16T14:09:14.799Z,101318.38
2019-02-16T14:12:21.702Z,101312.44
2019-02-16T14:17:58.665Z,101309.62
2019-02-16T14:20:27.093Z,101307.38
2019-02-16T14:22:55.858Z,101308.50
2019-02-16T14:25:45.633Z,101311.02
2019-02-16T14:28:33.019Z,101307.09
2019-02-16T14:31:01.482Z,101311.56
2019-02-16T14:33:30.101Z,101308.02
2019-02-16T14:35:58.566Z,101306.09
2019-02-16T14:41:06.335Z,101305.16
2019-02-16T14:43:34.795Z,101302.94
2019-02-16T14:46:03.231Z,101301.55
2019-02-16T14:48:31.692Z,101302.48
2019-02-16T14:51:00.123Z,101300.72
2019-02-16T14:53:28.571Z,101304.87
2019-02-16T14:55:57.030Z,101299.88
2019-02-16T14:58:25.465Z,101306.88
2019-02-16T15:00:53.899Z,101309.05
2019-02-16T15:03:22.369Z,101303.97
2019-02-16T15:05:50.803Z,101304.23
2019-02-16T15:11:06.778Z,101301.97
2019-02-16T15:13:35.215Z,101299.88
2019-02-16T15:18:51.145Z,101291.10
2019-02-16T15:21:19.579Z,101287.01
2019-02-16T15:23:48.014Z,101286.92
2019-02-16T15:26:16.591Z,101295.88
2019-02-16T15:28:45.028Z,101286.10
2019-02-16T15:31:13.465Z,101287.16
2019-02-16T15:33:41.927Z,101288.95
2019-02-16T15:36:10.714Z,101285.98
2019-02-16T15:38:39.154Z,101289.80
2019-02-16T15:41:07.625Z,101296.00
2019-02-16T15:43:36.361Z,101289.38
2019-02-16T15:48:52.423Z,101278.50
2019-02-16T15:51:20.858Z,101274.56
2019-02-16T15:53:49.641Z,101274.92
2019-02-16T15:56:18.431Z,101277.34
2019-02-16T15:58:46.939Z,101273.86
2019-02-16T16:01:15.405Z,101277.91
2019-02-16T16:03:43.871Z,101276.58
2019-02-16T16:06:12.305Z,101281.25
2019-02-16T16:08:42.381Z,101269.88
2019-02-16T16:11:21.382Z,101270.39
2019-02-16T16:13:54.193Z,101270.44
2019-02-16T16:16:39.301Z,101274.59
2019-02-16T16:19:11.826Z,101272.00
2019-02-16T16:21:44.636Z,101267.20
2019-02-16T16:24:32.603Z,101269.27
2019-02-16T16:27:05.625Z,101270.64
2019-02-16T16:29:44.810Z,101273.61
2019-02-16T16:32:32.834Z,101273.35
2019-02-16T16:35:02.909Z,101275.70
2019-02-16T16:37:36.068Z,101279.38
2019-02-16T16:40:06.920Z,101267.59
2019-02-16T16:42:52.867Z,101272.21
2019-02-16T16:45:22.994Z,101266.58
2019-02-16T16:48:09.469Z,101271.61
2019-02-16T16:50:56.106Z,101267.71
2019-02-16T16:53:42.677Z,101269.08
2019-02-16T16:56:28.170Z,101273.05
2019-02-16T16:58:53.747Z,101279.30
2019-02-16T17:01:24.108Z,101285.98
2019-02-16T17:04:10.762Z,101280.79
2019-02-16T17:06:40.954Z,101280.37
2019-02-16T17:09:14.791Z,101288.78
2019-02-16T17:11:57.137Z,101286.59
2019-02-16T17:14:27.218Z,101291.91
2019-02-16T17:16:59.327Z,101299.52
2019-02-16T17:19:29.503Z,101302.20
2019-02-16T17:22:02.416Z,101300.03
2019-02-16T17:24:35.221Z,101302.67
2019-02-16T17:27:08.056Z,101300.03
2019-02-16T17:29:41.124Z,101302.66
2019-02-16T17:32:11.192Z,101303.96
2019-02-16T17:34:50.373Z,101303.08
2019-02-16T17:37:20.536Z,101311.37
2019-02-16T17:39:56.497Z,101309.13
2019-02-16T17:42:29.227Z,101295.03
2019-02-16T17:45:02.458Z,101305.99
2019-02-16T17:47:50.554Z,101304.09
2019-02-16T17:50:23.650Z,101304.09
2019-02-16T17:53:11.795Z,101301.37
2019-02-16T17:55:44.496Z,101303.91
2019-02-16T17:58:17.561Z,101305.89
2019-02-16T18:00:56.634Z,101302.67
2019-02-16T18:03:26.708Z,101301.75
2019-02-16T18:06:08.859Z,101308.70
2019-02-16T18:08:47.865Z,101306.45
2019-02-16T18:11:20.664Z,101304.22
2019-02-16T18:14:08.969Z,101310.16
2019-02-16T18:16:55.707Z,101297.98
2019-02-16T18:19:31.529Z,101311.44
2019-02-16T18:22:20.028Z,101313.08
2019-02-16T18:25:06.645Z,101313.89
2019-02-16T18:27:53.101Z,101307.11
2019-02-16T18:30:28.748Z,101305.17
2019-02-16T18:33:14.958Z,101311.41
2019-02-16T18:35:54.178Z,101315.66
2019-02-16T18:38:27.084Z,101305.84
2019-02-16T18:41:00.053Z,101310.27
2019-02-16T18:43:30.157Z,101307.91
2019-02-16T18:46:00.321Z,101305.01
2019-02-16T18:48:36.460Z,101307.66
2019-02-16T18:51:06.631Z,101306.22
2019-02-16T18:53:49.402Z,101301.70
2019-02-16T18:56:35.646Z,101301.05
2019-02-16T18:59:06.228Z,101295.91
2019-02-16T19:01:38.718Z,101306.25
2019-02-16T19:04:08.915Z,101299.46
2019-02-16T19:06:39.092Z,101303.66
2019-02-16T19:09:12.203Z,101299.08
2019-02-16T19:11:48.364Z,101301.50
2019-02-16T19:14:24.251Z,101297.77
2019-02-16T19:16:54.369Z,101300.67
2019-02-16T19:19:24.519Z,101303.42
2019-02-16T19:21:57.375Z,101295.81
2019-02-16T19:24:39.272Z,101291.31
2019-02-16T19:27:16.461Z,101289.88
2019-02-16T19:29:59.979Z,101286.55
2019-02-16T19:32:36.137Z,101285.09
2019-02-16T19:35:23.420Z,101286.14
2019-02-16T19:37:59.196Z,101283.58
2019-02-16T19:40:31.868Z,101286.11
2019-02-16T19:43:13.927Z,101284.08
2019-02-16T19:45:44.147Z,101283.81
2019-02-16T19:48:16.665Z,101285.80
2019-02-16T19:50:49.255Z,101284.19
2019-02-16T19:53:19.373Z,101287.05
2019-02-16T19:56:05.802Z,101285.34
2019-02-16T19:58:45.117Z,101281.80
2019-02-16T20:01:18.559Z,101287.94
2019-02-16T20:04:03.828Z,101287.95
2019-02-16T20:06:46.505Z,101290.14
2019-02-16T20:09:28.831Z,101284.67
2019-02-16T20:12:02.529Z,101282.02
2019-02-16T20:14:49.250Z,101288.70
2019-02-16T20:17:35.859Z,101287.06
2019-02-16T20:20:08.209Z,101287.88
2019-02-16T20:22:38.383Z,101288.45
2019-02-16T20:25:17.714Z,101296.86
2019-02-16T20:27:48.029Z,101296.16
2019-02-16T20:30:33.223Z,101299.48
2019-02-16T20:33:03.562Z,101305.63
2019-02-16T20:35:39.887Z,101303.91
2019-02-16T20:38:21.738Z,101307.70
2019-02-16T20:40:54.670Z,101306.60
2019-02-16T20:43:41.332Z,101291.94
2019-02-16T20:46:11.549Z,101296.84
2019-02-16T20:48:59.096Z,101302.07
2019-02-16T20:51:41.342Z,101297.94
2019-02-16T20:54:23.633Z,101301.16
2019-02-16T20:56:59.784Z,101300.66
2019-02-16T20:59:30.333Z,101305.36
2019-02-16T21:02:17.010Z,101300.48
2019-02-16T21:04:50.558Z,101301.16
2019-02-16T21:07:32.832Z,101295.91
2019-02-16T21:10:02.954Z,101301.98
2019-02-16T21:12:41.683Z,101303.26
2019-02-16T21:15:14.636Z,101306.88
2019-02-16T21:17:47.990Z,101308.19
2019-02-16T21:20:18.194Z,101304.66
2019-02-16T21:23:06.246Z,101312.77
2019-02-16T21:25:36.448Z,101311.14
2019-02-16T21:28:06.745Z,101309.73
2019-02-16T21:30:46.206Z,101314.04
2019-02-16T21:33:25.117Z,101299.91
2019-02-16T21:36:02.198Z,101307.38
2019-02-16T21:38:32.675Z,101319.00
2019-02-16T21:41:18.569Z,101300.44
2019-02-16T21:43:48.791Z,101297.92
2019-02-16T21:46:18.867Z,101294.04
2019-02-16T21:48:48.984Z,101307.52
2019-02-16T21:51:22.037Z,101303.52
2019-02-16T21:53:52.192Z,101302.78
2019-02-16T21:56:31.949Z,101306.77
2019-02-16T21:59:19.520Z,101304.86
2019-02-16T22:01:56.154Z,101303.56
2019-02-16T22:04:29.232Z,101300.30
2019-02-16T22:06:59.309Z,101302.55
2019-02-16T22:09:29.761Z,101306.96
2019-02-16T22:12:15.837Z,101308.84
2019-02-16T22:14:44.313Z,101306.11
2019-02-16T22:17:12.737Z,101299.27
2019-02-16T22:19:41.164Z,101296.19
2019-02-16T22:22:10.010Z,101297.98
2019-02-16T22:24:38.538Z,101295.50
2019-02-16T22:27:06.965Z,101291.56
2019-02-16T22:29:35.420Z,101286.81
2019-02-16T22:32:03.933Z,101285.60
2019-02-16T22:34:32.366Z,101286.86
2019-02-16T22:37:01.181Z,101287.75
2019-02-16T22:39:29.625Z,101283.62
2019-02-16T22:41:58.057Z,101282.10
2019-02-16T22:44:26.521Z,101274.30
2019-02-16T22:46:54.952Z,101278.31
2019-02-16T22:49:23.452Z,101282.01
2019-02-16T22:51:51.957Z,101284.89
2019-02-16T22:54:20.458Z,101283.16
2019-02-16T22:56:48.898Z,101286.53
2019-02-16T22:59:17.371Z,101285.98
2019-02-16T23:01:45.972Z,101294.73
2019-02-16T23:04:14.403Z,101283.44
2019-02-16T23:06:42.939Z,101282.79
2019-02-16T23:09:13.081Z,101278.93
2019-02-16T23:11:41.610Z,101285.98
2019-02-16T23:14:10.169Z,101285.77
2019-02-16T23:16:38.673Z,101281.64
2019-02-16T23:19:07.548Z,101282.06
2019-02-16T23:21:36.098Z,101283.79
2019-02-16T23:24:04.761Z,101285.52
2019-02-16T23:26:33.197Z,101286.52
2019-02-16T23:29:01.667Z,101279.66
2019-02-16T23:31:30.741Z,101280.58
2019-02-16T23:33:59.173Z,101274.69
2019-02-16T23:36:28.039Z,101283.12
2019-02-16T23:38:56.801Z,101282.78
2019-02-16T23:41:25.434Z,101275.86
2019-02-16T23:43:53.896Z,101273.70
2019-02-16T23:46:22.328Z,101271.70
2019-02-16T23:48:51.133Z,101271.14
2019-02-16T23:51:19.597Z,101272.14
2019-02-16T23:53:48.100Z,101267.30
2019-02-16T23:56:16.563Z,101258.36
2019-02-16T23:58:49.177Z,101261.28
